Radnor, Ohio
Current Conditions -  °F | °C
As of 12:41 PM on Monday 22 Dec 2014 (Local Time) from KDLZ Reporting Station
Clear Clear  
Wind Chill: 35°   Ceiling: Unl
Heat Index: 39°   Visibility: 10mi
Dew Point: 32°   Wind: 6mph
Humidity: 75%   Direction: 140°SE
Pressure: 29.98"   Gusts: NA
Location:  40.38°N, 83.15°W
Report Text: KDLZ 221741Z AUTO 14005KT 10SM CLR 04/00 A2998 RMK AO2
Loading
Personal Weather Stations






























Interactive Weather Map New forecast layout! Learn more

10-Day Weather Forecast

Advertisements
Track Severe Weather on mobile